SFRO2: Stillwater Fairgrounds RD

                                SHEF ID:       SFRO2     Stillwater Fairgrounds RD
STATION TYPE:

PRECIP STAGE RIV-FLOW VOLTAGE BAT-LOAD
in ft cfs volt volt
Ccp-Rev Ccp-Rev Ccp-Rev Ccp-Rev Ccp-Rev
(America/Chicago)
04/24 00:00 0.00 5.45 7 12.86 12.54
04/24 01:00 0.00 5.45 7 12.85 12.53
04/24 02:00 1.03 5.54 8 12.83 12.50
04/24 03:00 0.09 5.56 8 12.80 12.48
04/24 04:00 0.00 6.23 39 12.80 12.46
04/24 05:00 0.01 8.77 514 12.78 12.46
04/24 06:00 0.00 11.61 1245 12.77 12.44
04/24 07:00 0.00 13.40 1782 12.76 12.44
04/24 08:00 0.00 14.82 2177 12.74 12.41
04/24 09:00 0.00 15.87 2479 12.82 12.47
04/24 10:00 0.00 16.50 2665 12.93 12.57
04/24 11:00 0.00 16.34 2617 13.08 12.71
04/24 12:00 0.00 15.71 2433 13.22 12.96
04/24 13:00 0.03 14.97 2219 12.99 12.58
04/24 14:00 0.00 14.14 1986 13.77 13.22
04/24 15:00 0.00 13.21 1730 13.80 13.29
04/24 16:00 0.00 12.18 1412 13.71 13.24
04/24 17:00 0.00 11.09 1100 13.96 13.16
04/24 18:00 0.00 10.07 826 13.39 13.11
04/24 19:00 0.00 9.12 593 13.17 12.86
04/24 20:00 0.00 8.33 410 13.01 12.71
04/24 21:00 0.00 7.71 282 12.94 12.63
04/24 22:00 0.00 7.30 209 12.90 12.59
04/24 23:00 0.00 7.06 171 12.88 12.57
Data processed at Sat 25Apr2026 04:50 GMT

NOTICE: If you are parsing this page

Please convert to using our Data API. Starting early 2026 we will be migrating to: https://water.usace.army.mil with modern pages rendered in JavaScript. When this migration completes you will no longer be able to scrape this page! CWMSDataAPI (CDA)

Timeseries IDs (TSIDs)

TSIDs used from left to right in the data table
STIL.Precip-Inc.Total.1Hour.1Hour.Ccp-Rev
STIL.Stage.Inst.1Hour.0.Ccp-Rev
STIL.Flow.Inst.1Hour.0.Ccp-Rev
STIL.Volt-Battery.Inst.1Hour.0.Ccp-Rev
STIL.Volt-Battery Load.Inst.1Hour.0.Ccp-Rev

                            

All information presented herein is the property of the government of the United States of America and may be revised or deleted at any time without prior notice. Dissemination of this information without the expressed written consent of the Public Affairs Office, Tulsa District U.S. Army Corps of Engineers is strictly prohibited. These data are gathered electronically and, as presented, have NOT undergone any form of quality control. These data are NOT guaranteed to be valid or correct.